createdAt,value
2023-01-30T00:04:56.718Z,82.76
2023-01-30T00:11:19.599Z,82.29
2023-01-30T00:17:39.586Z,82.22
2023-01-30T00:24:02.592Z,81.69
2023-01-30T00:30:22.657Z,81.45
2023-01-30T00:36:46.606Z,81.5
2023-01-30T00:43:05.569Z,81.7
2023-01-30T00:49:28.718Z,81.47
2023-01-30T00:55:48.564Z,81.72
2023-01-30T01:02:11.727Z,81.96
2023-01-30T01:08:31.562Z,82.07
2023-01-30T01:14:54.629Z,81.73
2023-01-30T01:21:14.607Z,81.59
2023-01-30T01:27:37.617Z,81.67
2023-01-30T01:33:57.604Z,81.57
2023-01-30T01:40:20.581Z,81.46
2023-01-30T01:46:40.605Z,81.66
2023-01-30T01:53:03.625Z,81.74
2023-01-30T01:59:23.610Z,81.69
2023-01-30T02:05:46.677Z,81.83
2023-01-30T02:12:06.712Z,82.24
2023-01-30T02:18:29.628Z,82.24
2023-01-30T02:24:49.583Z,82.1
2023-01-30T02:31:12.744Z,81.92
2023-01-30T02:37:32.608Z,81.74
2023-01-30T02:43:55.594Z,81.78
2023-01-30T02:50:15.604Z,82.11
2023-01-30T02:56:38.675Z,82.72
2023-01-30T03:02:58.657Z,84.13
2023-01-30T03:09:21.637Z,85.02
2023-01-30T03:15:41.553Z,85.64
2023-01-30T03:22:04.586Z,85.73
2023-01-30T03:28:24.586Z,85.81
2023-01-30T03:34:47.654Z,86.09
2023-01-30T03:41:07.603Z,86.21
2023-01-30T03:47:30.658Z,86.28
2023-01-30T03:53:50.637Z,86.55
2023-01-30T04:00:13.572Z,86.71
2023-01-30T04:06:35.747Z,86.37
2023-01-30T04:22:07.538Z,84.76
2023-01-30T04:28:27.575Z,82.9
2023-01-30T04:34:50.696Z,82.04
2023-01-30T04:41:10.603Z,81.63
2023-01-30T04:47:33.693Z,81.67
2023-01-30T04:53:53.583Z,81.52
2023-01-30T05:00:16.655Z,81.31
2023-01-30T05:06:36.699Z,81.22
2023-01-30T05:12:59.574Z,81.63
2023-01-30T05:19:19.645Z,82.14
2023-01-30T05:25:42.802Z,82.1
2023-01-30T05:32:02.587Z,82.18
2023-01-30T05:38:25.598Z,82.48
2023-01-30T05:44:45.570Z,83.41
2023-01-30T05:51:08.676Z,84.84
2023-01-30T05:57:28.641Z,86.03
2023-01-30T06:03:51.750Z,86.68
2023-01-30T06:10:11.581Z,87.38
2023-01-30T06:16:34.676Z,87.89
2023-01-30T06:22:54.608Z,88.18
2023-01-30T06:29:17.591Z,88.12
2023-01-30T06:35:37.640Z,87.74
2023-01-30T06:42:00.613Z,87.68
2023-01-30T06:48:20.615Z,86.95
2023-01-30T06:54:43.641Z,86.69
2023-01-30T07:01:03.617Z,86.68
2023-01-30T07:07:26.644Z,86.63
2023-01-30T07:13:46.676Z,86.22
2023-01-30T07:20:09.590Z,85.77
2023-01-30T07:26:29.629Z,85.4
2023-01-30T07:32:52.622Z,85.56
2023-01-30T07:39:12.610Z,85.82
2023-01-30T07:45:35.604Z,86.14
2023-01-30T07:51:55.623Z,86.64
2023-01-30T07:58:18.651Z,87.05
2023-01-30T08:04:38.742Z,87.24
2023-01-30T08:11:01.712Z,87.63
2023-01-30T08:17:21.600Z,87.35
2023-01-30T08:23:44.604Z,87.58
2023-01-30T08:30:04.724Z,88.59
2023-01-30T08:36:27.617Z,89.37
2023-01-30T08:42:47.684Z,88.94
2023-01-30T08:49:10.679Z,88.79
2023-01-30T08:55:30.585Z,88.59
2023-01-30T09:01:53.627Z,88.25
2023-01-30T09:08:13.677Z,87.97
2023-01-30T09:32:13.505Z,81.64
2023-01-30T09:38:36.576Z,80.22
2023-01-30T09:44:56.586Z,77.73
2023-01-30T09:51:19.634Z,76.11
2023-01-30T09:57:39.621Z,74.56
2023-01-30T10:04:02.665Z,72.92
2023-01-30T10:10:22.717Z,72.07
2023-01-30T10:16:45.588Z,71.89
2023-01-30T10:23:05.601Z,71.09
2023-01-30T10:29:28.648Z,70.35
2023-01-30T10:35:48.610Z,71.25
2023-01-30T10:42:12.011Z,70.05
2023-01-30T10:48:42.776Z,69.08
2023-01-30T10:54:54.606Z,69.11
2023-01-30T11:01:14.640Z,68.93
2023-01-30T11:07:37.670Z,68.14
2023-01-30T11:13:57.638Z,68.26
2023-01-30T11:20:21.144Z,68.34
2023-01-30T11:26:46.978Z,68.29
2023-01-30T11:33:03.664Z,68.54
2023-01-30T11:39:23.641Z,68.29
2023-01-30T11:45:46.680Z,68.71
2023-01-30T11:52:06.711Z,69.48
2023-01-30T11:58:29.566Z,69.41
2023-01-30T12:04:49.684Z,69.48
2023-01-30T12:11:12.585Z,70.26
2023-01-30T12:17:32.599Z,69.49
2023-01-30T12:23:56.637Z,69.05
2023-01-30T12:30:17.020Z,69
2023-01-30T12:36:37.653Z,69.11
2023-01-30T12:42:57.601Z,68.59
2023-01-30T12:49:20.861Z,68.74
2023-01-30T12:55:40.597Z,68.09
2023-01-30T13:02:03.586Z,67.93
2023-01-30T13:08:23.644Z,68.26
2023-01-30T13:14:46.600Z,69.39
2023-01-30T13:21:06.650Z,68.96
2023-01-30T13:27:29.589Z,68.04
2023-01-30T13:33:49.587Z,67.24
2023-01-30T13:40:12.663Z,67.28
2023-01-30T13:46:32.700Z,67.61
2023-01-30T13:52:55.617Z,67.28
2023-01-30T13:59:15.674Z,66.87
2023-01-30T14:05:47.362Z,66.76
2023-01-30T14:11:58.718Z,66.3
2023-01-30T14:35:04.619Z,66.98
2023-01-30T14:41:27.592Z,66.26
2023-01-30T14:47:49.619Z,66.41
2023-01-30T14:54:10.623Z,66.14
2023-01-30T15:00:30.639Z,65.88
2023-01-30T15:06:53.589Z,66.06
2023-01-30T15:13:13.606Z,65.43
2023-01-30T15:19:36.642Z,65.88
2023-01-30T15:25:56.562Z,65.7
2023-01-30T15:32:19.809Z,66.07
2023-01-30T15:38:39.604Z,65.63
2023-01-30T15:45:02.592Z,65.75
2023-01-30T15:51:22.669Z,66.04
2023-01-30T15:57:45.629Z,66.75
2023-01-30T16:04:05.642Z,67.44
2023-01-30T16:10:28.601Z,68.28
2023-01-30T16:16:48.669Z,67.84
2023-01-30T16:23:11.643Z,67.94
2023-01-30T16:29:31.633Z,68.11
2023-01-30T16:35:54.633Z,67.83
2023-01-30T16:42:14.630Z,68
2023-01-30T16:48:37.691Z,68.2
2023-01-30T16:54:57.602Z,68.49
2023-01-30T17:01:20.647Z,68.78
2023-01-30T17:07:40.657Z,69.12
2023-01-30T17:14:03.574Z,69.48
2023-01-30T17:20:23.604Z,69.67
2023-01-30T17:26:46.706Z,69.58
2023-01-30T17:33:06.624Z,69.47
2023-01-30T17:39:29.621Z,69.32
2023-01-30T17:45:49.613Z,69.45
2023-01-30T17:52:12.640Z,69.25
2023-01-30T17:58:32.622Z,69.39
2023-01-30T18:04:55.628Z,69.38
2023-01-30T18:11:15.637Z,69.46
2023-01-30T18:17:38.607Z,69.67
2023-01-30T18:23:58.670Z,69.85
2023-01-30T18:30:21.814Z,70.12
2023-01-30T18:36:41.564Z,70.27
2023-01-30T18:43:04.670Z,70.31
2023-01-30T18:49:24.626Z,70.42
2023-01-30T18:55:47.556Z,70.58
2023-01-30T19:02:07.639Z,70.55
2023-01-30T19:08:30.578Z,70.7
2023-01-30T19:14:50.591Z,71.01
2023-01-30T19:21:13.674Z,71.36
2023-01-30T19:38:26.506Z,72
2023-01-30T19:44:49.575Z,72.06
2023-01-30T19:51:09.573Z,71.97
2023-01-30T19:57:32.615Z,72.16
2023-01-30T20:03:52.625Z,72.57
2023-01-30T20:10:15.631Z,72.93
2023-01-30T20:16:35.805Z,73.3
2023-01-30T20:22:58.574Z,73.73
2023-01-30T20:29:18.623Z,73.92
2023-01-30T20:35:41.627Z,74.28
2023-01-30T20:42:01.617Z,74.42
2023-01-30T20:48:24.612Z,74.63
2023-01-30T20:54:44.648Z,74.67
2023-01-30T21:01:07.690Z,74.59
2023-01-30T21:07:27.575Z,74.69
2023-01-30T21:13:50.648Z,75
2023-01-30T21:20:10.612Z,75.22
2023-01-30T21:26:33.596Z,75.56
2023-01-30T21:32:53.618Z,75.77
2023-01-30T21:39:16.624Z,76.09
2023-01-30T21:45:36.600Z,78.72
2023-01-30T21:51:59.636Z,80.44
2023-01-30T21:58:19.597Z,81.33
2023-01-30T22:04:42.687Z,82.43
2023-01-30T22:11:02.613Z,83.46
2023-01-30T22:17:25.641Z,82.81
2023-01-30T22:23:45.774Z,83.08
2023-01-30T22:30:08.601Z,83.04
2023-01-30T22:36:28.629Z,81.54
2023-01-30T22:42:51.607Z,80.65
2023-01-30T22:49:11.633Z,80.55
2023-01-30T22:55:34.604Z,80.23
2023-01-30T23:19:48.599Z,79.24
2023-01-30T23:26:08.571Z,79.29
2023-01-30T23:32:31.618Z,78.99
2023-01-30T23:38:51.655Z,78.96
2023-01-30T23:45:14.584Z,78.62
2023-01-30T23:51:35.391Z,78.29
2023-01-30T23:57:57.609Z,78.31
